Time;durP1;ratioP1;P1;durP2;ratioP2;P2;SDS_P1;SDS_P2;PMS_P1;PMS_P2;Temp;Humidity;BMP_temperature;BMP_pressure;BME280_temperature;BME280_humidity;BME280_pressure;Samples;Min_cycle;Max_cycle;Signal;HPM_P1;HPM_P2
2022/05/09 00:01:19;;;;;;;11.93;5.55;;;;;;;12.58;56.80;102689.88;5058666;28;20323;-78
2022/05/09 00:03:44;;;;;;;13.25;6.38;;;;;;;12.55;57.29;102692.38;5058690;28;20096;-79
2022/05/09 00:06:10;;;;;;;12.93;6.07;;;;;;;12.53;57.21;102691.41;5055656;28;20044;-78
2022/05/09 00:08:36;;;;;;;15.15;5.82;;;;;;;12.50;57.30;102684.31;5063442;28;20267;-78
2022/05/09 00:11:01;;;;;;;10.98;6.03;;;;;;;12.48;56.91;102680.75;5063146;28;20049;-78
2022/05/09 00:13:27;;;;;;;18.20;6.43;;;;;;;12.47;57.47;102683.28;5058373;28;20067;-78
2022/05/09 00:15:52;;;;;;;13.13;5.95;;;;;;;12.43;57.01;102678.75;5063873;28;20025;-78
2022/05/09 00:18:20;;;;;;;12.48;6.10;;;;;;;12.42;57.07;102684.81;5059656;28;20076;-75
2022/05/09 00:20:46;;;;;;;14.63;5.88;;;;;;;12.41;56.93;102680.38;5058691;28;20025;-75
2022/05/09 00:23:11;;;;;;;11.73;5.25;;;;;;;12.34;57.18;102679.22;5057302;28;20068;-75
2022/05/09 00:25:36;;;;;;;12.48;5.65;;;;;;;12.31;57.34;102672.13;5060701;28;20297;-75
2022/05/09 00:28:02;;;;;;;12.68;5.75;;;;;;;12.31;57.27;102671.22;5062491;28;20032;-75
2022/05/09 00:30:27;;;;;;;12.82;5.35;;;;;;;12.26;57.41;102673.63;5063272;28;20711;-75
2022/05/09 00:32:52;;;;;;;11.73;5.38;;;;;;;12.25;57.90;102674.47;5063955;28;20248;-75
2022/05/09 00:35:18;;;;;;;13.65;5.40;;;;;;;12.21;57.84;102675.16;5062246;28;20074;-75
2022/05/09 00:37:43;;;;;;;13.02;5.03;;;;;;;12.22;57.73;102663.84;5053162;28;20024;-75
2022/05/09 00:40:12;;;;;;;13.52;5.03;;;;;;;12.17;57.77;102673.22;5063737;28;20029;-75
2022/05/09 00:42:43;;;;;;;10.77;5.25;;;;;;;12.14;58.39;102667.84;5061398;28;20024;-75
2022/05/09 00:45:09;;;;;;;13.68;5.15;;;;;;;12.09;58.58;102671.94;5063554;28;20087;-75
2022/05/09 00:47:34;;;;;;;15.40;5.68;;;;;;;12.04;58.80;102671.75;5079984;28;20020;-75
2022/05/09 00:50:04;;;;;;;12.82;5.78;;;;;;;11.99;58.46;102678.44;5063859;28;20039;-75
2022/05/09 00:52:38;;;;;;;16.80;5.32;;;;;;;11.97;58.03;102673.16;5062774;28;20106;-75
2022/05/09 00:55:13;;;;;;;12.25;5.35;;;;;;;11.92;58.41;102672.03;5061410;28;20028;-75
2022/05/09 00:57:45;;;;;;;11.85;5.35;;;;;;;11.84;58.06;102662.94;5052177;28;20025;-75
2022/05/09 01:00:16;;;;;;;12.20;5.35;;;;;;;11.83;58.16;102667.25;5055986;28;20040;-75
2022/05/09 01:02:49;;;;;;;12.23;5.20;;;;;;;11.76;58.99;102661.66;5059179;28;20045;-75
2022/05/09 01:05:16;;;;;;;11.02;5.60;;;;;;;11.71;58.96;102668.38;5054629;28;20032;-75
2022/05/09 01:07:42;;;;;;;13.23;5.25;;;;;;;11.65;59.33;102664.66;5056530;28;20028;-75
2022/05/09 01:10:10;;;;;;;12.20;5.30;;;;;;;11.61;59.80;102659.22;5062916;28;20024;-75
2022/05/09 01:12:37;;;;;;;13.50;5.63;;;;;;;11.58;59.81;102659.94;5062476;28;20349;-75
2022/05/09 01:15:08;;;;;;;12.65;5.47;;;;;;;11.54;60.25;102649.28;5062652;28;20055;-75
2022/05/09 01:17:35;;;;;;;14.88;5.47;;;;;;;11.51;59.73;102652.63;5061876;28;20070;-75
2022/05/09 01:20:01;;;;;;;13.63;5.40;;;;;;;11.46;60.10;102643.69;5062993;28;20204;-75
2022/05/09 01:22:31;;;;;;;11.48;5.03;;;;;;;11.40;60.30;102641.69;5062171;28;20286;-75
2022/05/09 01:25:03;;;;;;;12.75;5.28;;;;;;;11.35;60.32;102640.53;5054476;28;20020;-75
2022/05/09 01:27:30;;;;;;;11.73;5.20;;;;;;;11.28;60.53;102644.59;5061985;28;20056;-75
2022/05/09 01:29:59;;;;;;;15.18;5.85;;;;;;;11.26;60.68;102640.09;5062264;28;20032;-75
2022/05/09 01:32:33;;;;;;;15.00;6.05;;;;;;;11.26;60.95;102647.94;5062348;28;20033;-75
2022/05/09 01:35:07;;;;;;;15.73;6.07;;;;;;;11.25;60.86;102646.13;5056017;28;20025;-75
2022/05/09 01:37:36;;;;;;;12.40;5.70;;;;;;;11.22;60.67;102640.75;5062318;28;20134;-75
2022/05/09 01:40:01;;;;;;;14.68;5.50;;;;;;;11.20;60.84;102645.03;5062596;28;20025;-75
2022/05/09 01:42:27;;;;;;;11.60;5.57;;;;;;;11.15;60.60;102639.56;5062435;28;20052;-75
2022/05/09 01:44:52;;;;;;;11.05;5.32;;;;;;;11.13;60.49;102635.97;5061763;28;20037;-75
2022/05/09 01:50:01;;;;;;;11.95;5.40;;;;;;;11.03;61.04;102634.63;5061944;28;20040;-75
2022/05/09 01:52:27;;;;;;;9.77;5.15;;;;;;;10.98;61.30;102640.41;5062515;28;20021;-75
2022/05/09 01:54:53;;;;;;;12.23;4.82;;;;;;;10.94;61.36;102640.25;5061320;28;20021;-75
2022/05/09 01:57:18;;;;;;;10.88;4.90;;;;;;;10.86;62.09;102646.81;5061529;28;20021;-78
2022/05/09 01:59:44;;;;;;;12.90;5.47;;;;;;;10.84;61.82;102643.22;5057408;28;20028;-78
2022/05/09 02:02:13;;;;;;;10.55;4.32;;;;;;;10.80;61.56;102636.03;5060689;28;20032;-77
2022/05/09 02:04:40;;;;;;;13.95;5.30;;;;;;;10.78;61.58;102645.50;5055218;28;20185;-78
2022/05/09 02:07:09;;;;;;;13.48;5.43;;;;;;;10.72;61.73;102647.81;5058032;28;20078;-78
2022/05/09 02:09:37;;;;;;;9.65;5.03;;;;;;;10.71;61.99;102636.47;5051481;28;20172;-78
2022/05/09 02:12:02;;;;;;;12.63;5.45;;;;;;;10.67;62.57;102633.63;5058711;28;20329;-78
2022/05/09 02:14:27;;;;;;;14.60;5.65;;;;;;;10.64;62.84;102638.69;5058144;28;20044;-78
2022/05/09 02:16:53;;;;;;;13.55;5.35;;;;;;;10.56;63.13;102635.69;5060455;28;20037;-77
2022/05/09 02:19:18;;;;;;;8.70;4.82;;;;;;;10.52;63.29;102638.94;5059537;28;20037;-78
2022/05/09 02:21:43;;;;;;;11.07;5.40;;;;;;;10.49;63.88;102634.47;5061089;28;20176;-77
2022/05/09 02:24:09;;;;;;;11.10;5.60;;;;;;;10.45;63.60;102640.31;5057542;28;20045;-78
2022/05/09 02:26:34;;;;;;;10.73;5.45;;;;;;;10.44;63.59;102633.31;5058921;28;20037;-78
2022/05/09 02:28:59;;;;;;;13.02;5.60;;;;;;;10.43;63.13;102634.16;5058661;28;20020;-78
2022/05/09 02:31:26;;;;;;;11.43;5.22;;;;;;;10.38;63.31;102620.84;5058006;28;20033;-78
2022/05/09 02:33:51;;;;;;;12.93;5.78;;;;;;;10.27;63.49;102627.19;5058925;28;20339;-77
2022/05/09 02:36:17;;;;;;;13.10;5.30;;;;;;;10.24;63.58;102633.13;5059371;28;20025;-78
2022/05/09 02:38:42;;;;;;;10.82;5.10;;;;;;;10.23;63.31;102630.44;5057798;28;20048;-78
2022/05/09 02:41:07;;;;;;;10.55;5.00;;;;;;;10.22;63.16;102626.03;5055133;28;20032;-78
2022/05/09 02:43:34;;;;;;;12.07;5.43;;;;;;;10.17;63.40;102620.56;5060224;28;20211;-77
2022/05/09 02:46:03;;;;;;;13.93;5.40;;;;;;;10.13;63.47;102621.22;5056297;28;20325;-77
2022/05/09 02:48:29;;;;;;;;;;;;;;;10.31;61.71;102628.22;5058371;28;20033;-77
2022/05/09 02:50:54;;;;;;;11.13;5.22;;;;;;;10.14;63.55;102623.03;5056750;28;19908;-77
2022/05/09 02:53:20;;;;;;;12.55;5.68;;;;;;;10.14;63.69;102624.72;5057986;28;20255;-77
2022/05/09 02:55:45;;;;;;;11.35;5.45;;;;;;;10.04;63.52;102624.22;5058139;28;20040;-77
2022/05/09 02:58:13;;;;;;;13.60;5.30;;;;;;;10.00;63.44;102627.47;5060973;28;20412;-77
2022/05/09 03:00:38;;;;;;;14.60;5.80;;;;;;;9.97;63.00;102626.41;5057468;28;20045;-77
2022/05/09 03:05:48;;;;;;;13.50;5.10;;;;;;;9.89;63.20;102619.09;5060689;28;20036;-77
2022/05/09 03:08:15;;;;;;;12.77;5.28;;;;;;;9.87;63.25;102617.19;5061639;28;20037;-77
2022/05/09 03:10:40;;;;;;;10.90;4.90;;;;;;;9.86;63.56;102620.59;5061268;28;20024;-77
2022/05/09 03:13:08;;;;;;;11.15;4.97;;;;;;;9.78;63.94;102619.31;5061318;28;20039;-77
2022/05/09 03:15:37;;;;;;;9.68;5.18;;;;;;;9.72;64.49;102617.25;5075161;28;20025;-78
2022/05/09 03:18:03;;;;;;;12.97;5.20;;;;;;;9.73;64.52;102616.41;5056946;28;20341;-77
2022/05/09 03:20:29;;;;;;;13.10;5.03;;;;;;;9.69;64.68;102614.44;5057545;28;20035;-78
2022/05/09 03:22:54;;;;;;;12.32;5.82;;;;;;;9.67;64.64;102616.09;5065547;28;20021;-78
2022/05/09 03:25:20;;;;;;;12.52;4.95;;;;;;;9.67;64.67;102613.50;5062673;28;20234;-77
2022/05/09 03:27:46;;;;;;;10.50;5.32;;;;;;;9.56;65.47;102624.19;5065260;28;20024;-77
2022/05/09 03:30:14;;;;;;;14.98;4.80;;;;;;;9.52;65.98;102611.81;5065324;28;20120;-77
2022/05/09 03:32:40;;;;;;;10.90;5.03;;;;;;;9.53;66.16;102598.00;5064908;28;20187;-78
2022/05/09 03:35:09;;;;;;;10.95;4.45;;;;;;;9.51;65.53;102612.63;5061095;28;20013;-78
2022/05/09 03:37:35;;;;;;;10.45;5.05;;;;;;;9.51;65.57;102603.94;5064825;28;20272;-77
2022/05/09 03:40:00;;;;;;;10.32;4.75;;;;;;;9.48;65.76;102596.84;5062737;28;20035;-77
2022/05/09 03:42:26;;;;;;;14.40;5.20;;;;;;;9.50;65.90;102605.63;5062353;28;20092;-76
2022/05/09 03:44:51;;;;;;;15.20;5.55;;;;;;;9.50;65.75;102603.03;5062541;28;20039;-77
2022/05/09 03:47:17;;;;;;;12.20;5.32;;;;;;;9.44;66.14;102602.66;5061294;28;20052;-77
2022/05/09 03:49:43;;;;;;;11.77;5.47;;;;;;;9.46;65.72;102614.06;5059699;28;20048;-76
2022/05/09 03:52:08;;;;;;;15.15;5.80;;;;;;;9.43;65.33;102603.50;5064596;28;20079;-77
2022/05/09 03:54:33;;;;;;;12.95;5.15;;;;;;;9.44;65.54;102597.47;5064540;28;20025;-77
2022/05/09 03:56:59;;;;;;;12.00;5.13;;;;;;;9.39;65.86;102609.34;5064159;28;20308;-77
2022/05/09 03:59:24;;;;;;;12.05;5.15;;;;;;;9.35;65.80;102603.03;5063733;28;20263;-77
2022/05/09 04:01:50;;;;;;;11.73;5.72;;;;;;;9.30;65.35;102611.38;5064623;28;20054;-77
2022/05/09 04:04:15;;;;;;;10.82;5.55;;;;;;;9.27;66.07;102606.94;5063409;28;20084;-77
2022/05/09 04:06:40;;;;;;;15.68;6.03;;;;;;;9.24;66.14;102598.97;5079350;28;20051;-77
2022/05/09 04:09:05;;;;;;;10.57;5.15;;;;;;;9.20;65.96;102602.19;5063296;28;20067;-77
2022/05/09 04:11:31;;;;;;;10.45;5.53;;;;;;;9.17;65.90;102602.91;5063934;28;20028;-77
2022/05/09 04:13:56;;;;;;;10.90;5.55;;;;;;;9.16;66.09;102600.22;5064848;28;20025;-77
2022/05/09 04:19:06;;;;;;;11.50;5.10;;;;;;;9.13;66.08;102603.53;5064233;28;20152;-77
2022/05/09 04:21:32;;;;;;;9.95;5.28;;;;;;;9.12;66.12;102601.72;5063216;28;20064;-76
2022/05/09 04:23:58;;;;;;;12.73;5.57;;;;;;;9.12;66.91;102603.44;5063903;28;20309;-77
2022/05/09 04:26:25;;;;;;;12.70;5.38;;;;;;;9.13;66.82;102597.44;5052468;28;20037;-77
2022/05/09 04:28:51;;;;;;;12.02;5.53;;;;;;;9.14;66.61;102588.81;5061474;28;20298;-77
2022/05/09 04:31:16;;;;;;;14.05;6.13;;;;;;;9.11;66.67;102592.16;5061924;28;20618;-77
2022/05/09 04:33:42;;;;;;;11.57;5.40;;;;;;;9.07;67.34;102592.78;5063619;28;20025;-77
2022/05/09 04:36:07;;;;;;;11.90;5.63;;;;;;;9.10;67.61;102595.56;5063078;28;20037;-77
2022/05/09 04:38:34;;;;;;;12.32;5.47;;;;;;;9.09;67.94;102591.16;5062984;28;20222;-77
2022/05/09 04:40:59;;;;;;;11.70;5.57;;;;;;;9.09;67.91;102587.66;5062429;28;20261;-77
2022/05/09 04:43:31;;;;;;;11.65;5.60;;;;;;;9.07;68.34;102590.19;5063113;28;20198;-77
2022/05/09 04:45:58;;;;;;;11.77;5.00;;;;;;;9.07;68.46;102584.97;5063830;28;20070;-77
2022/05/09 04:48:24;;;;;;;12.68;5.10;;;;;;;9.08;68.27;102589.38;5063830;28;20079;-75
2022/05/09 04:50:49;;;;;;;10.80;5.20;;;;;;;9.08;68.70;102593.66;5063317;28;20032;-75
2022/05/09 04:53:16;;;;;;;12.23;5.47;;;;;;;9.10;68.73;102586.88;5063010;28;20052;-75
2022/05/09 04:55:42;;;;;;;11.70;5.18;;;;;;;9.11;69.11;102586.94;5078423;28;20021;-75
2022/05/09 04:58:12;;;;;;;9.82;5.28;;;;;;;9.12;69.13;102586.13;5063320;28;20271;-75
2022/05/09 05:00:37;;;;;;;11.10;5.28;;;;;;;9.11;68.68;102588.63;5054135;28;20140;-75
2022/05/09 05:03:03;;;;;;;13.65;5.32;;;;;;;9.09;68.66;102577.25;5056940;28;20040;-75
2022/05/09 05:05:28;;;;;;;13.27;5.32;;;;;;;9.10;68.76;102579.94;5063050;28;20024;-75
2022/05/09 05:07:54;;;;;;;12.07;5.65;;;;;;;9.09;68.90;102578.16;5063672;28;20234;-75
2022/05/09 05:10:20;;;;;;;11.30;5.72;;;;;;;9.12;69.09;102577.44;5061996;28;20020;-75
2022/05/09 05:12:46;;;;;;;13.07;6.05;;;;;;;9.15;69.25;102573.31;5063079;28;20021;-75
2022/05/09 05:15:12;;;;;;;16.27;6.50;;;;;;;9.15;69.10;102568.13;5063049;28;20218;-75
2022/05/09 05:17:38;;;;;;;12.55;5.75;;;;;;;9.16;69.34;102579.41;5062906;28;20091;-74
2022/05/09 05:20:09;;;;;;;13.65;6.80;;;;;;;9.17;69.39;102581.22;5062543;28;20036;-75
2022/05/09 05:22:37;;;;;;;16.95;6.78;;;;;;;9.17;70.21;102587.28;5062771;28;20041;-75
2022/05/09 05:25:03;;;;;;;14.50;5.80;;;;;;;9.20;70.35;102581.38;5063000;28;20063;-75
2022/05/09 05:27:28;;;;;;;17.77;6.70;;;;;;;9.26;69.70;102586.03;5063723;28;20037;-75
2022/05/09 05:29:57;;;;;;;14.48;6.93;;;;;;;9.30;69.59;102590.59;5061493;28;20959;-75
2022/05/09 05:32:26;;;;;;;17.40;7.20;;;;;;;9.33;70.38;102588.19;5053357;28;20029;-75
2022/05/09 05:34:51;;;;;;;15.80;7.60;;;;;;;9.36;70.23;102588.34;5056534;28;20043;-75
2022/05/09 05:37:17;;;;;;;15.82;7.65;;;;;;;9.40;70.80;102592.94;5077544;28;20052;-75
2022/05/09 05:39:44;;;;;;;17.58;7.90;;;;;;;9.43;70.81;102590.50;5062594;28;20712;-75
2022/05/09 05:42:10;;;;;;;22.92;7.90;;;;;;;9.47;70.52;102589.88;5062169;28;20025;-75
2022/05/09 05:44:37;;;;;;;18.38;8.25;;;;;;;9.53;69.56;102585.00;5062366;28;20040;-75
2022/05/09 05:47:10;;;;;;;17.73;8.13;;;;;;;9.61;69.90;102589.72;5062534;28;20033;-75
2022/05/09 05:49:36;;;;;;;15.05;7.68;;;;;;;9.64;70.46;102593.38;5062224;28;20604;-75
2022/05/09 05:52:03;;;;;;;19.23;8.25;;;;;;;9.70;70.38;102585.03;5071692;28;20172;-74
2022/05/09 05:54:30;;;;;;;15.85;8.20;;;;;;;9.74;70.24;102589.59;5058462;28;20027;-75
2022/05/09 05:56:56;;;;;;;18.70;8.13;;;;;;;9.78;70.90;102577.66;5053938;28;20311;-75
2022/05/09 05:59:21;;;;;;;16.80;7.75;;;;;;;9.85;69.85;102590.19;5061025;28;20134;-75
2022/05/09 06:01:47;;;;;;;18.33;7.85;;;;;;;9.97;69.67;102585.63;5061670;28;20079;-75
2022/05/09 06:04:12;;;;;;;19.08;8.60;;;;;;;10.16;69.03;102589.25;5061814;28;20087;-75
2022/05/09 06:06:38;;;;;;;20.05;7.95;;;;;;;10.35;67.80;102591.13;5062335;28;20037;-74
2022/05/09 06:09:05;;;;;;;19.23;7.55;;;;;;;10.48;67.54;102590.06;5062787;28;20144;-75
2022/05/09 06:11:31;;;;;;;16.70;7.60;;;;;;;10.62;68.29;102591.69;5062098;28;20090;-74
2022/05/09 06:13:56;;;;;;;17.67;7.90;;;;;;;10.73;66.96;102590.53;5062689;28;20271;-74
2022/05/09 06:16:21;;;;;;;20.00;8.02;;;;;;;10.82;66.96;102581.38;5077385;28;20029;-75
2022/05/09 06:18:51;;;;;;;22.50;7.90;;;;;;;10.92;66.93;102583.63;5061970;28;20037;-75
2022/05/09 06:21:18;;;;;;;20.75;8.00;;;;;;;11.00;66.26;102586.63;5061897;28;20025;-75
2022/05/09 06:23:43;;;;;;;17.40;7.97;;;;;;;11.05;66.89;102585.13;5061973;28;20040;-75
2022/05/09 06:26:08;;;;;;;19.02;8.50;;;;;;;11.11;66.11;102585.47;5061705;28;20029;-77
2022/05/09 06:28:33;;;;;;;20.13;8.48;;;;;;;11.15;66.28;102582.16;5077482;28;20033;-77
2022/05/09 06:30:59;;;;;;;20.30;8.52;;;;;;;11.21;65.56;102584.16;5061840;28;20024;-78
2022/05/09 06:33:25;;;;;;;22.23;9.48;;;;;;;11.26;66.47;102586.19;5061641;28;20052;-78
2022/05/09 06:35:53;;;;;;;20.52;8.38;;;;;;;11.32;65.52;102588.19;5055698;28;20222;-77
2022/05/09 06:38:19;;;;;;;20.05;8.75;;;;;;;11.39;65.98;102585.06;5057183;28;20045;-78
2022/05/09 06:40:45;;;;;;;24.77;9.15;;;;;;;11.44;64.95;102577.44;5060648;28;20040;-77
2022/05/09 06:43:10;;;;;;;23.00;9.68;;;;;;;11.50;65.13;102583.00;5054661;28;20025;-78
2022/05/09 06:45:36;;;;;;;20.25;9.18;;;;;;;11.56;64.13;102580.66;5055882;28;20156;-78
2022/05/09 06:48:02;;;;;;;20.65;9.32;;;;;;;11.63;65.46;102576.66;5061017;28;20029;-78
2022/05/09 06:50:31;;;;;;;22.52;9.80;;;;;;;11.68;65.70;102580.34;5061032;28;20041;-78
2022/05/09 06:52:57;;;;;;;20.85;9.20;;;;;;;11.75;63.51;102578.94;5062345;28;20031;-78
2022/05/09 06:55:22;;;;;;;21.33;9.93;;;;;;;11.82;63.71;102576.66;5064074;28;20029;-78
2022/05/09 06:57:49;;;;;;;21.35;8.98;;;;;;;11.89;64.18;102574.31;5056318;28;20110;-78
2022/05/09 07:00:18;;;;;;;24.33;10.13;;;;;;;11.97;64.68;102573.88;5053719;28;20094;-78
2022/05/09 07:02:44;;;;;;;22.48;10.30;;;;;;;12.02;63.18;102573.22;5060388;28;20043;-77
2022/05/09 07:05:11;;;;;;;25.25;10.40;;;;;;;12.10;63.69;102579.69;5062129;28;20021;-78
2022/05/09 07:07:37;;;;;;;24.42;10.65;;;;;;;12.15;65.01;102573.84;5064091;28;20032;-75
2022/05/09 07:10:03;;;;;;;25.70;10.88;;;;;;;12.23;63.96;102570.69;5059673;28;20290;-75
2022/05/09 07:12:29;;;;;;;24.27;10.25;;;;;;;12.29;63.49;102566.59;5065227;28;20036;-75
2022/05/09 07:14:54;;;;;;;29.23;11.00;;;;;;;12.35;63.49;102569.50;5061509;28;20048;-75
2022/05/09 07:17:20;;;;;;;27.23;10.75;;;;;;;12.41;62.64;102558.44;5064988;28;20287;-75
2022/05/09 07:19:45;;;;;;;25.90;10.93;;;;;;;12.50;62.52;102564.03;5063047;28;20224;-75
2022/05/09 07:22:11;;;;;;;21.60;10.63;;;;;;;12.56;62.75;102554.66;5063863;28;20036;-76
2022/05/09 07:24:36;;;;;;;24.90;11.02;;;;;;;12.63;63.81;102562.84;5048647;28;20057;-76
2022/05/09 07:27:02;;;;;;;23.85;10.68;;;;;;;12.70;63.56;102564.00;5057904;28;20241;-76
2022/05/09 07:29:27;;;;;;;26.98;11.63;;;;;;;12.76;62.44;102560.75;5060185;28;20032;-76
2022/05/09 07:31:52;;;;;;;28.13;11.13;;;;;;;12.83;61.01;102557.56;5057473;28;20018;-76
2022/05/09 07:34:18;;;;;;;26.15;11.40;;;;;;;12.87;60.69;102563.00;5053715;28;20025;-76
2022/05/09 07:36:43;;;;;;;26.60;11.82;;;;;;;12.94;61.22;102563.25;5061272;28;20033;-76
2022/05/09 07:39:08;;;;;;;26.83;11.75;;;;;;;12.99;61.46;102556.47;5053777;28;20286;-76
2022/05/09 07:41:34;;;;;;;28.90;11.93;;;;;;;13.04;62.99;102563.69;5063937;28;20092;-76
2022/05/09 07:43:59;;;;;;;27.13;12.52;;;;;;;13.13;63.51;102559.66;5050569;28;20084;-76
2022/05/09 07:46:25;;;;;;;27.40;11.93;;;;;;;13.18;61.15;102553.78;5056096;28;20040;-76
2022/05/09 07:48:50;;;;;;;24.55;11.52;;;;;;;13.25;62.16;102562.75;5080892;28;20279;-76
2022/05/09 07:51:17;;;;;;;30.13;12.98;;;;;;;13.33;61.84;102561.34;5064401;28;20252;-76
2022/05/09 07:53:42;;;;;;;26.15;12.65;;;;;;;13.43;62.83;102567.00;5061480;28;20090;-76
2022/05/09 07:56:08;;;;;;;32.88;12.57;;;;;;;13.46;62.76;102564.50;5056113;28;20100;-76
2022/05/09 07:58:34;;;;;;;34.95;12.38;;;;;;;13.52;60.17;102564.75;5061150;28;20033;-76
2022/05/09 08:01:01;;;;;;;28.77;12.27;;;;;;;13.55;60.48;102557.88;5064628;28;20025;-76
2022/05/09 08:03:29;;;;;;;26.10;11.98;;;;;;;13.63;61.98;102566.06;5064381;28;20060;-78
2022/05/09 08:05:56;;;;;;;27.55;12.13;;;;;;;13.73;60.14;102559.47;5061696;28;20059;-79
2022/05/09 08:08:22;;;;;;;35.22;13.45;;;;;;;13.81;60.21;102563.22;5064027;28;20084;-80
2022/05/09 08:10:48;;;;;;;32.67;12.63;;;;;;;13.89;59.67;102559.19;5063400;28;20029;-80
2022/05/09 08:13:16;;;;;;;34.03;13.07;;;;;;;13.97;59.95;102563.81;5052630;28;20033;-81
2022/05/09 08:15:44;;;;;;;34.58;13.65;;;;;;;14.05;59.33;102563.28;5053363;28;20044;-80
2022/05/09 08:18:10;;;;;;;34.63;13.73;;;;;;;14.14;60.97;102562.72;5059756;28;20048;-80
2022/05/09 08:20:37;;;;;;;32.28;13.00;;;;;;;14.23;57.95;102559.53;5061109;28;20029;-80
2022/05/09 08:23:06;;;;;;;28.27;13.13;;;;;;;14.30;58.89;102556.28;5059492;28;20219;-81
2022/05/09 08:25:34;;;;;;;28.23;12.75;;;;;;;14.41;60.86;102564.53;5061115;28;20032;-80
2022/05/09 08:28:01;;;;;;;32.40;13.00;;;;;;;14.53;61.15;102562.34;5060540;28;20036;-81
2022/05/09 08:30:32;;;;;;;30.20;12.55;;;;;;;14.66;58.41;102560.19;5061089;28;20041;-81
2022/05/09 08:32:58;;;;;;;28.70;12.65;;;;;;;14.71;58.88;102558.59;5060594;28;20112;-81
2022/05/09 08:35:23;;;;;;;26.67;12.05;;;;;;;14.74;56.30;102557.00;5061114;28;20084;-80
2022/05/09 08:37:48;;;;;;;28.75;13.27;;;;;;;14.83;56.91;102558.13;5061672;28;20077;-80
2022/05/09 08:40:15;;;;;;;29.38;13.02;;;;;;;14.91;57.15;102552.28;5057433;28;20097;-80
2022/05/09 08:42:48;;;;;;;31.42;12.93;;;;;;;15.00;58.07;102556.94;5059855;28;20032;-80
2022/05/09 08:45:31;;;;;;;34.90;14.23;;;;;;;15.06;55.57;102558.88;5052719;28;20070;-81
2022/05/09 08:48:17;;;;;;;31.45;13.52;;;;;;;15.09;55.12;102559.91;5060282;28;20032;-81
2022/05/09 08:51:00;;;;;;;38.80;14.93;;;;;;;15.18;56.66;102554.06;5054489;28;20161;-81
2022/05/09 08:53:27;;;;;;;35.10;14.70;;;;;;;15.27;56.05;102554.34;5061926;28;20074;-81
2022/05/09 08:55:55;;;;;;;35.10;15.50;;;;;;;15.44;55.50;102557.50;5063412;28;20035;-81
2022/05/09 08:58:32;;;;;;;35.35;15.27;;;;;;;15.47;56.19;102557.59;5057071;28;20704;-81
2022/05/09 09:01:03;;;;;;;38.15;15.48;;;;;;;15.52;53.83;102555.09;5076435;28;20039;-81
2022/05/09 09:03:31;;;;;;;31.58;16.00;;;;;;;15.57;55.41;102547.34;5062452;28;20024;-81
2022/05/09 09:06:04;;;;;;;33.78;17.55;;;;;;;15.68;54.66;102548.56;5063199;28;20025;-81
2022/05/09 09:08:52;;;;;;;37.13;17.48;;;;;;;15.72;53.66;102541.69;5061770;28;20183;-81
2022/05/09 09:11:28;;;;;;;35.80;16.45;;;;;;;15.82;56.37;102536.75;5059229;28;20033;-81
2022/05/09 09:13:59;;;;;;;45.03;16.77;;;;;;;15.96;56.65;102531.00;5059426;28;20021;-81
2022/05/09 09:16:41;;;;;;;33.38;14.98;;;;;;;16.06;55.08;102526.91;5075471;28;20024;-81
2022/05/09 09:19:49;;;;;;;33.00;14.80;;;;;;;16.10;53.95;102529.66;5055648;28;20040;-81
2022/05/09 09:22:34;;;;;;;29.17;13.90;;;;;;;16.18;53.52;102527.25;5073619;28;20049;-81
2022/05/09 09:25:02;;;;;;;32.53;14.38;;;;;;;16.22;52.39;102521.22;5060736;28;20305;-81
2022/05/09 09:27:44;;;;;;;28.17;12.65;;;;;;;16.32;53.01;102519.72;5062667;28;20082;-81
2022/05/09 09:30:14;;;;;;;28.23;10.35;;;;;;;16.40;52.78;102522.56;5060114;28;20036;-81
2022/05/09 09:32:42;;;;;;;29.48;10.45;;;;;;;16.48;51.17;102521.94;5059012;28;20031;-81
2022/05/09 09:35:37;;;;;;;23.17;9.85;;;;;;;16.56;51.85;102524.75;5074537;28;20179;-84
2022/05/09 09:38:13;;;;;;;27.33;11.85;;;;;;;16.60;49.37;102516.09;5053562;28;20070;-83
2022/05/09 09:40:38;;;;;;;21.88;10.88;;;;;;;16.60;48.90;102513.44;5060653;28;20036;-83
2022/05/09 09:43:05;;;;;;;33.65;14.02;;;;;;;16.69;51.60;102513.66;5054688;28;20021;-83
2022/05/09 09:45:40;;;;;;;31.90;13.73;;;;;;;16.83;52.26;102513.16;5053864;28;20178;-83
2022/05/09 09:48:22;;;;;;;28.05;13.57;;;;;;;16.90;52.14;102514.19;5057384;28;20037;-83
2022/05/09 09:51:13;;;;;;;29.63;13.23;;;;;;;17.00;53.41;102508.28;5054471;28;20184;-83
2022/05/09 09:53:57;;;;;;;35.67;14.80;;;;;;;17.08;50.87;102519.03;5049799;28;20044;-82
2022/05/09 09:56:23;;;;;;;29.05;12.38;;;;;;;17.11;51.67;102498.03;5050570;28;20029;-87
2022/05/09 09:59:16;;;;;;;29.33;12.35;;;;;;;17.21;49.19;102507.91;5054944;28;20031;-87
2022/05/09 10:01:43;;;;;;;20.80;10.40;;;;;;;17.32;48.72;102505.50;5060750;28;20031;-87
2022/05/09 10:04:25;;;;;;;24.15;11.05;;;;;;;17.42;49.55;102502.22;5052119;28;20032;-86
2022/05/09 10:07:24;;;;;;;25.08;11.13;;;;;;;17.54;49.79;102497.22;5058280;28;20088;-86
2022/05/09 10:10:15;;;;;;;30.50;12.85;;;;;;;17.61;48.59;102486.81;5057380;28;20022;-86
2022/05/09 10:12:50;;;;;;;26.30;11.63;;;;;;;17.63;47.89;102487.75;5059492;28;20045;-87
2022/05/09 10:15:24;;;;;;;25.13;11.65;;;;;;;17.71;47.63;102486.13;5061239;28;20037;-86
2022/05/09 10:17:49;;;;;;;25.80;11.23;;;;;;;17.72;48.93;102480.00;5061739;28;20040;-87
2022/05/09 10:20:27;;;;;;;25.20;11.45;;;;;;;17.81;48.03;102481.94;5062312;28;20021;-88
2022/05/09 10:26:06;;;;;;;28.85;11.95;;;;;;;18.04;48.51;102463.97;5052548;28;20075;-88
2022/05/09 10:28:36;;;;;;;29.75;12.35;;;;;;;18.05;47.18;102469.25;5055459;28;20263;-86
2022/05/09 10:31:25;;;;;;;27.42;12.50;;;;;;;18.17;48.06;102465.09;5061067;28;20524;-87
2022/05/09 10:34:09;;;;;;;24.48;11.32;;;;;;;18.28;47.84;102459.97;5062296;28;20062;-89
2022/05/09 10:36:51;;;;;;;28.17;13.70;;;;;;;18.38;48.07;102456.66;5062282;28;20053;-86
2022/05/09 10:39:25;;;;;;;29.13;13.25;;;;;;;18.42;48.84;102451.47;5062107;28;20037;-86
2022/05/09 10:41:55;;;;;;;34.55;14.43;;;;;;;18.63;48.66;102452.66;5076486;28;20160;-86
2022/05/09 10:44:44;;;;;;;32.08;14.10;;;;;;;18.80;49.08;102457.31;5048972;28;20170;-87
2022/05/09 10:47:25;;;;;;;35.20;13.93;;;;;;;18.98;49.46;102459.38;5061151;28;20343;-86
2022/05/09 10:50:01;;;;;;;28.35;12.05;;;;;;;19.04;45.12;102454.19;5059050;28;20163;-88
2022/05/09 10:52:48;;;;;;;33.22;14.15;;;;;;;19.05;48.65;102453.34;5059391;28;20172;-88
2022/05/09 10:55:26;;;;;;;28.48;11.80;;;;;;;19.23;47.90;102450.03;5061376;28;20017;-88
2022/05/09 10:58:03;;;;;;;32.33;13.43;;;;;;;19.32;47.48;102441.34;5060797;28;20072;-88
2022/05/09 11:00:32;;;;;;;28.95;12.50;;;;;;;19.30;44.10;102443.97;5060283;28;20083;-88
2022/05/09 11:03:10;;;;;;;28.63;11.70;;;;;;;19.33;45.99;102446.66;5061723;28;20017;-89
2022/05/09 11:06:07;;;;;;;28.35;11.57;;;;;;;19.38;46.45;102436.13;5062101;28;20028;-91
2022/05/09 11:08:58;;;;;;;27.50;11.43;;;;;;;19.53;47.01;102433.69;5073990;28;20021;-93
2022/05/09 11:11:47;;;;;;;27.77;11.43;;;;;;;19.66;45.84;102425.91;5058655;28;20037;-94
2022/05/09 11:14:37;;;;;;;27.27;11.00;;;;;;;19.83;46.72;102421.72;5056496;28;20024;-93
2022/05/09 11:17:02;;;;;;;28.05;11.95;;;;;;;19.84;42.09;102420.81;5054797;28;20207;-93
2022/05/09 11:19:54;;;;;;;30.17;11.80;;;;;;;19.90;45.61;102420.00;5053002;28;20051;-91
2022/05/09 11:22:22;;;;;;;24.80;11.77;;;;;;;20.09;48.73;102426.38;5057044;28;20096;-89
2022/05/09 11:25:06;;;;;;;24.40;11.35;;;;;;;20.24;48.03;102420.34;5053846;28;20036;-91
2022/05/09 11:27:42;;;;;;;27.65;13.38;;;;;;;20.17;42.99;102419.38;5052927;28;20032;-89
2022/05/09 11:30:27;;;;;;;26.02;12.50;;;;;;;20.14;43.60;102408.78;5048947;28;20043;-90
2022/05/09 11:32:59;;;;;;;25.63;12.15;;;;;;;20.10;44.37;102405.22;5056466;28;20224;-89
2022/05/09 11:35:36;;;;;;;32.53;14.20;;;;;;;20.05;42.46;102401.63;5048072;28;20033;-90
2022/05/09 11:38:22;;;;;;;30.40;13.10;;;;;;;20.12;45.03;102406.13;5055025;28;20658;-89